createdAt,value
2022-12-17T00:00:35.341Z,61.40
2022-12-17T00:03:45.932Z,64.10
2022-12-17T00:06:48.284Z,52.40
2022-12-17T00:09:50.409Z,56.90
2022-12-17T00:12:44.609Z,60.60
2022-12-17T00:15:38.679Z,53.80
2022-12-17T00:18:32.134Z,57.20
2022-12-17T00:21:26.609Z,61.50
2022-12-17T00:24:20.160Z,54.50
2022-12-17T00:27:13.738Z,58.40
2022-12-17T00:30:07.393Z,67.40
2022-12-17T00:33:01.558Z,56.10
2022-12-17T00:35:55.632Z,58.70
2022-12-17T00:38:50.415Z,50.10
2022-12-17T00:41:43.906Z,58.00
2022-12-17T00:44:37.530Z,53.50
2022-12-17T00:47:35.904Z,54.00
2022-12-17T00:50:31.106Z,60.30
2022-12-17T00:53:24.554Z,54.30
2022-12-17T00:56:32.555Z,50.80
2022-12-17T00:59:26.601Z,56.70
2022-12-17T01:02:20.438Z,55.50
2022-12-17T01:05:14.136Z,60.70
2022-12-17T01:08:07.819Z,61.70
2022-12-17T01:11:01.554Z,53.50
2022-12-17T01:13:55.014Z,58.60
2022-12-17T01:16:50.269Z,51.10
2022-12-17T01:19:44.378Z,56.80
2022-12-17T01:22:38.050Z,54.40
2022-12-17T01:25:33.484Z,56.90
2022-12-17T01:28:27.797Z,45.90
2022-12-17T01:31:21.293Z,46.30
2022-12-17T01:34:17.366Z,53.80
2022-12-17T01:37:14.038Z,51.80
2022-12-17T01:40:07.806Z,48.40
2022-12-17T01:43:05.945Z,48.50
2022-12-17T01:46:03.566Z,50.60
2022-12-17T01:49:03.191Z,54.50
2022-12-17T01:51:57.477Z,49.30
2022-12-17T01:54:51.433Z,51.40
2022-12-17T01:57:46.261Z,46.60
2022-12-17T02:00:40.661Z,48.10
2022-12-17T02:03:39.649Z,50.60
2022-12-17T02:06:43.573Z,53.60
2022-12-17T02:09:51.706Z,52.40
2022-12-17T02:12:56.304Z,48.90
2022-12-17T02:16:02.460Z,36.00
2022-12-17T02:19:06.984Z,46.00
2022-12-17T02:22:03.960Z,45.00
2022-12-17T02:25:11.858Z,45.50
2022-12-17T02:28:05.815Z,44.30
2022-12-17T02:31:00.388Z,38.20
2022-12-17T02:33:54.719Z,49.10
2022-12-17T02:36:48.214Z,53.60
2022-12-17T02:39:42.095Z,47.80
2022-12-17T02:42:37.287Z,51.80
2022-12-17T02:45:32.649Z,57.80
2022-12-17T02:48:28.748Z,68.60
2022-12-17T02:51:23.327Z,61.30
2022-12-17T02:54:20.623Z,66.40
2022-12-17T02:57:14.584Z,57.00
2022-12-17T03:00:08.348Z,56.10
2022-12-17T03:03:01.989Z,66.00
2022-12-17T03:05:55.888Z,61.50
2022-12-17T03:08:49.437Z,50.20
2022-12-17T03:11:47.299Z,56.60
2022-12-17T03:14:41.336Z,54.50
2022-12-17T03:17:46.703Z,43.20
2022-12-17T03:20:40.515Z,47.70
2022-12-17T03:23:37.657Z,46.10
2022-12-17T03:26:32.054Z,49.80
2022-12-17T03:29:26.110Z,50.20
2022-12-17T03:32:19.913Z,45.80
2022-12-17T03:35:13.165Z,38.30
2022-12-17T03:38:06.961Z,47.30
2022-12-17T03:41:00.317Z,36.70
2022-12-17T03:43:53.231Z,42.40
2022-12-17T03:46:46.884Z,43.30
2022-12-17T03:49:40.650Z,44.40
2022-12-17T03:52:34.203Z,43.80
2022-12-17T03:55:28.922Z,39.80
2022-12-17T03:58:22.571Z,45.70
2022-12-17T04:01:27.974Z,45.30
2022-12-17T04:04:21.926Z,43.40
2022-12-17T04:07:15.607Z,43.80
2022-12-17T04:10:09.282Z,47.10
2022-12-17T04:13:03.075Z,47.80
2022-12-17T04:15:57.014Z,49.30
2022-12-17T04:18:51.131Z,39.50
2022-12-17T04:21:44.624Z,45.20
2022-12-17T04:24:38.008Z,41.90
2022-12-17T04:27:34.270Z,38.70
2022-12-17T04:30:31.136Z,45.20
2022-12-17T04:33:24.779Z,46.70
2022-12-17T04:36:18.234Z,37.20
2022-12-17T04:39:12.061Z,39.80
2022-12-17T04:42:05.878Z,40.60
2022-12-17T04:45:03.320Z,40.00
2022-12-17T04:47:55.763Z,45.70
2022-12-17T04:50:49.533Z,40.10
2022-12-17T04:53:43.582Z,41.00
2022-12-17T04:56:37.106Z,42.50
2022-12-17T04:59:30.497Z,38.10
2022-12-17T05:02:24.177Z,43.00
2022-12-17T05:05:18.024Z,35.50
2022-12-17T05:08:15.274Z,42.60
2022-12-17T05:11:09.130Z,36.60
2022-12-17T05:14:02.711Z,37.50
2022-12-17T05:16:56.247Z,43.60
2022-12-17T05:19:49.701Z,39.50
2022-12-17T05:22:43.258Z,38.10
2022-12-17T05:25:37.240Z,35.60
2022-12-17T05:28:30.773Z,38.30
2022-12-17T05:31:24.486Z,41.00
2022-12-17T05:34:20.529Z,34.90
2022-12-17T05:37:13.814Z,35.60
2022-12-17T05:40:12.434Z,38.40
2022-12-17T05:43:17.103Z,35.60
2022-12-17T05:46:11.545Z,39.20
2022-12-17T05:49:04.829Z,36.20
2022-12-17T05:51:57.857Z,41.20
2022-12-17T05:54:51.384Z,42.20
2022-12-17T05:57:44.894Z,40.50
2022-12-17T06:00:39.716Z,42.30
2022-12-17T06:03:33.163Z,34.40
2022-12-17T06:06:27.076Z,29.80
2022-12-17T06:09:20.962Z,40.10
2022-12-17T06:12:10.632Z,39.60
2022-12-17T06:15:04.440Z,34.30
2022-12-17T06:17:57.850Z,41.30
2022-12-17T06:20:51.319Z,34.50
2022-12-17T06:23:44.908Z,34.70
2022-12-17T06:26:38.218Z,38.30
2022-12-17T06:29:31.402Z,40.40
2022-12-17T06:32:25.336Z,37.50
2022-12-17T06:35:19.391Z,43.50
2022-12-17T06:38:23.080Z,45.00
2022-12-17T06:41:18.600Z,35.70
2022-12-17T06:44:13.610Z,41.10
2022-12-17T06:47:06.883Z,45.80
2022-12-17T06:50:01.734Z,43.10
2022-12-17T06:52:55.388Z,37.10
2022-12-17T06:55:49.153Z,52.60
2022-12-17T06:58:43.024Z,43.90
2022-12-17T07:01:36.996Z,42.40
2022-12-17T07:04:30.864Z,40.80
2022-12-17T07:07:24.379Z,40.00
2022-12-17T07:10:14.652Z,46.80
2022-12-17T07:13:08.248Z,40.80
2022-12-17T07:16:02.074Z,41.40
2022-12-17T07:18:56.386Z,39.80
2022-12-17T07:21:49.918Z,39.30
2022-12-17T07:24:43.684Z,43.00
2022-12-17T07:27:37.256Z,36.10
2022-12-17T07:30:33.386Z,34.70
2022-12-17T07:33:30.423Z,40.00
2022-12-17T07:36:24.697Z,47.50
2022-12-17T07:39:18.152Z,40.10
2022-12-17T07:42:11.724Z,38.00
2022-12-17T07:45:05.066Z,39.60
2022-12-17T07:47:58.437Z,43.30
2022-12-17T07:50:57.092Z,45.10
2022-12-17T07:53:50.559Z,43.30
2022-12-17T07:56:44.424Z,44.80
2022-12-17T07:59:38.879Z,44.70
2022-12-17T08:02:34.288Z,39.00
2022-12-17T08:05:29.893Z,39.40
2022-12-17T08:08:32.666Z,43.10
2022-12-17T08:11:26.939Z,36.80
2022-12-17T08:14:20.522Z,35.90
2022-12-17T08:17:14.450Z,49.20
2022-12-17T08:20:08.126Z,46.30
2022-12-17T08:23:01.627Z,40.80
2022-12-17T08:25:55.035Z,42.40
2022-12-17T08:28:50.866Z,38.10
2022-12-17T08:31:46.139Z,43.20
2022-12-17T08:34:48.479Z,42.90
2022-12-17T08:40:35.300Z,43.50
2022-12-17T08:43:29.092Z,44.20
2022-12-17T08:46:23.188Z,41.00
2022-12-17T08:49:16.935Z,40.40
2022-12-17T08:52:10.565Z,41.50
2022-12-17T08:55:03.649Z,37.60
2022-12-17T08:57:57.276Z,38.30
2022-12-17T09:00:59.347Z,38.90
2022-12-17T09:06:44.585Z,41.10
2022-12-17T09:09:38.209Z,41.00
2022-12-17T09:12:32.229Z,43.50
2022-12-17T09:15:27.499Z,44.60
2022-12-17T09:18:21.058Z,42.70
2022-12-17T09:21:17.098Z,38.30
2022-12-17T09:24:11.047Z,43.70
2022-12-17T09:27:04.675Z,47.00
2022-12-17T09:29:58.488Z,38.60
2022-12-17T09:32:52.251Z,43.70
2022-12-17T09:35:57.372Z,43.20
2022-12-17T09:38:51.110Z,43.00
2022-12-17T09:41:53.927Z,42.30
2022-12-17T09:44:58.310Z,40.80
2022-12-17T09:48:10.186Z,48.70
2022-12-17T09:51:05.089Z,50.30
2022-12-17T09:54:05.129Z,46.40
2022-12-17T09:57:03.297Z,47.50
2022-12-17T09:59:58.176Z,43.80
2022-12-17T10:03:05.176Z,46.20
2022-12-17T10:06:01.418Z,50.60
2022-12-17T10:08:55.653Z,48.40
2022-12-17T10:11:53.953Z,45.70
2022-12-17T10:14:48.756Z,47.40
2022-12-17T10:17:44.630Z,54.00
2022-12-17T10:20:49.785Z,45.40
2022-12-17T10:23:53.491Z,50.70
2022-12-17T10:26:51.473Z,50.20
2022-12-17T10:29:52.979Z,48.90
2022-12-17T10:32:49.829Z,45.20
2022-12-17T10:35:54.002Z,49.70
2022-12-17T10:38:51.042Z,51.60
2022-12-17T10:41:48.343Z,47.20
2022-12-17T10:44:50.905Z,44.50
2022-12-17T10:47:47.225Z,41.20
2022-12-17T10:50:43.593Z,45.30
2022-12-17T10:53:44.441Z,45.80
2022-12-17T10:56:47.370Z,49.90
2022-12-17T10:59:57.631Z,53.70
2022-12-17T11:02:53.294Z,43.00
2022-12-17T11:05:59.579Z,49.10
2022-12-17T11:08:50.786Z,48.10
2022-12-17T11:11:46.488Z,45.60
2022-12-17T11:14:41.893Z,46.30
2022-12-17T11:17:47.919Z,45.40
2022-12-17T11:20:58.794Z,40.10
2022-12-17T11:24:00.244Z,47.30
2022-12-17T11:26:59.509Z,44.40
2022-12-17T11:29:53.596Z,44.60
2022-12-17T11:33:18.216Z,45.20
2022-12-17T11:36:32.491Z,48.60
2022-12-17T11:39:42.014Z,44.10
2022-12-17T11:42:57.152Z,43.60
2022-12-17T11:46:03.546Z,45.90
2022-12-17T11:49:08.548Z,38.90
2022-12-17T11:52:18.759Z,46.40
2022-12-17T11:55:32.307Z,47.50
2022-12-17T11:58:36.017Z,44.50
2022-12-17T12:01:39.279Z,49.30
2022-12-17T12:04:58.389Z,55.30
2022-12-17T12:08:05.819Z,52.20
2022-12-17T12:11:09.138Z,51.90
2022-12-17T12:14:12.446Z,43.80
2022-12-17T12:17:16.763Z,47.20
2022-12-17T12:20:21.342Z,48.90
2022-12-17T12:23:31.407Z,46.90
2022-12-17T12:26:34.982Z,48.00
2022-12-17T12:29:46.847Z,51.60
2022-12-17T12:32:52.128Z,54.50
2022-12-17T12:35:48.822Z,48.40
2022-12-17T12:38:50.153Z,50.50
2022-12-17T12:41:55.547Z,53.70
2022-12-17T12:45:03.714Z,53.90
2022-12-17T12:48:13.513Z,52.60
2022-12-17T12:51:20.304Z,50.30
2022-12-17T12:54:49.817Z,59.10
2022-12-17T12:57:56.673Z,54.20
2022-12-17T13:00:58.767Z,57.60
2022-12-17T13:03:56.872Z,65.30
2022-12-17T13:06:50.785Z,61.20
2022-12-17T13:09:48.412Z,56.70
2022-12-17T13:12:50.533Z,53.10
2022-12-17T13:15:37.536Z,71.50
2022-12-17T13:18:30.736Z,99.10
2022-12-17T13:21:29.651Z,108.80
2022-12-17T13:24:26.844Z,100.00
2022-12-17T13:27:02.824Z,88.60
2022-12-17T13:29:41.408Z,85.40
2022-12-17T13:32:30.304Z,84.10
2022-12-17T13:35:28.252Z,82.30
2022-12-17T13:38:16.745Z,78.40
2022-12-17T13:41:10.493Z,79.00
2022-12-17T13:43:51.933Z,67.90
2022-12-17T13:46:31.977Z,54.80
2022-12-17T13:49:19.891Z,73.10
2022-12-17T13:52:11.948Z,77.10
2022-12-17T13:54:48.855Z,72.40
2022-12-17T13:57:27.640Z,59.00
2022-12-17T14:00:05.292Z,71.80
2022-12-17T14:02:49.138Z,63.70
2022-12-17T14:05:42.490Z,79.30
2022-12-17T14:08:21.946Z,85.10
2022-12-17T14:11:19.910Z,76.80
2022-12-17T14:13:56.886Z,72.80
2022-12-17T14:16:33.217Z,65.70
2022-12-17T14:19:12.381Z,62.40
2022-12-17T14:21:48.818Z,58.20
2022-12-17T14:24:29.520Z,60.30
2022-12-17T14:27:23.130Z,57.00
2022-12-17T14:29:59.137Z,55.00
2022-12-17T14:32:40.077Z,44.30
2022-12-17T14:35:34.096Z,54.60
2022-12-17T14:38:36.950Z,51.40
2022-12-17T14:41:34.696Z,55.60
2022-12-17T14:44:21.922Z,60.50
2022-12-17T14:47:16.808Z,63.50
2022-12-17T14:50:30.159Z,53.60
2022-12-17T14:53:27.493Z,63.20
2022-12-17T14:56:03.508Z,55.30
2022-12-17T14:58:49.297Z,58.80
2022-12-17T15:01:25.504Z,63.40
2022-12-17T15:04:03.820Z,62.90
2022-12-17T15:06:39.820Z,59.90
2022-12-17T15:09:17.100Z,62.70
2022-12-17T15:11:53.171Z,46.20
2022-12-17T15:14:29.122Z,62.70
2022-12-17T15:17:06.086Z,47.30
2022-12-17T15:19:42.345Z,52.20
2022-12-17T15:22:21.892Z,50.80
2022-12-17T15:24:57.763Z,60.10
2022-12-17T15:27:33.662Z,59.50
2022-12-17T15:30:14.812Z,66.70
2022-12-17T15:32:51.563Z,55.70
2022-12-17T15:35:27.622Z,52.40
2022-12-17T15:38:04.319Z,61.70
2022-12-17T15:40:42.313Z,65.10
2022-12-17T15:43:18.293Z,67.10
2022-12-17T15:46:01.526Z,72.40
2022-12-17T15:48:37.622Z,71.10
2022-12-17T15:51:19.384Z,70.80
2022-12-17T15:53:55.899Z,73.50
2022-12-17T15:56:35.027Z,63.10
2022-12-17T15:59:11.498Z,69.20
2022-12-17T16:01:48.132Z,62.80
2022-12-17T16:04:25.394Z,68.50
2022-12-17T16:07:01.720Z,62.00
2022-12-17T16:09:37.778Z,77.20
2022-12-17T16:12:13.942Z,70.40
2022-12-17T16:14:50.102Z,67.00
2022-12-17T16:17:26.043Z,61.70
2022-12-17T16:20:01.847Z,73.10
2022-12-17T16:22:38.278Z,66.50
2022-12-17T16:25:14.994Z,67.10
2022-12-17T16:27:50.903Z,71.00
2022-12-17T16:30:26.770Z,78.90
2022-12-17T16:33:04.863Z,73.20
2022-12-17T16:35:40.720Z,77.90
2022-12-17T16:38:17.934Z,83.10
2022-12-17T16:40:57.853Z,78.10
2022-12-17T16:43:37.302Z,76.30
2022-12-17T16:46:30.426Z,81.50
2022-12-17T16:49:14.682Z,75.60
2022-12-17T16:51:57.651Z,75.10
2022-12-17T16:54:36.734Z,78.70
2022-12-17T16:57:12.690Z,64.20
2022-12-17T16:59:48.594Z,78.90
2022-12-17T17:02:25.273Z,72.30
2022-12-17T17:05:01.437Z,78.50
2022-12-17T17:07:37.443Z,88.50
2022-12-17T17:10:14.614Z,85.50
2022-12-17T17:12:52.083Z,78.30
2022-12-17T17:15:28.272Z,64.40
2022-12-17T17:18:04.535Z,82.90
2022-12-17T17:20:40.660Z,71.80
2022-12-17T17:23:17.269Z,77.60
2022-12-17T17:25:58.270Z,67.30
2022-12-17T17:28:35.475Z,73.10
2022-12-17T17:31:16.608Z,78.90
2022-12-17T17:33:55.715Z,72.20
2022-12-17T17:36:34.742Z,82.60
2022-12-17T17:39:15.425Z,81.50
2022-12-17T17:41:52.192Z,87.00
2022-12-17T17:44:28.869Z,81.30
2022-12-17T17:47:08.018Z,77.70
2022-12-17T17:49:44.580Z,78.50
2022-12-17T17:52:20.732Z,81.40
2022-12-17T17:54:56.685Z,82.30
2022-12-17T17:57:32.537Z,84.00
2022-12-17T18:00:11.587Z,84.40
2022-12-17T18:02:47.780Z,92.70
2022-12-17T18:05:24.209Z,80.50
2022-12-17T18:08:02.300Z,88.70
2022-12-17T18:10:38.323Z,85.30
2022-12-17T18:13:33.456Z,86.30
2022-12-17T18:16:10.272Z,91.10
2022-12-17T18:18:46.939Z,86.10
2022-12-17T18:21:23.967Z,91.80
2022-12-17T18:24:06.656Z,85.50
2022-12-17T18:26:45.173Z,73.00
2022-12-17T18:29:27.101Z,77.30
2022-12-17T18:32:03.247Z,78.50
2022-12-17T18:34:40.338Z,86.80
2022-12-17T18:37:16.506Z,75.70
2022-12-17T18:39:52.773Z,84.10
2022-12-17T18:42:46.842Z,78.50
2022-12-17T18:45:23.210Z,76.90
2022-12-17T18:47:59.180Z,69.50
2022-12-17T18:50:36.914Z,62.90
2022-12-17T18:53:13.328Z,52.50
2022-12-17T18:55:49.387Z,69.10
2022-12-17T18:58:25.895Z,66.70
2022-12-17T19:01:02.517Z,58.20
2022-12-17T19:03:38.600Z,69.50
2022-12-17T19:06:15.583Z,73.60
2022-12-17T19:08:52.536Z,80.80
2022-12-17T19:11:29.629Z,83.40
2022-12-17T19:14:05.838Z,80.50
2022-12-17T19:16:42.073Z,85.40
2022-12-17T19:19:19.149Z,79.90
2022-12-17T19:21:57.017Z,75.90
2022-12-17T19:24:33.784Z,87.30
2022-12-17T19:27:09.790Z,73.90
2022-12-17T19:29:49.331Z,79.20
2022-12-17T19:32:27.618Z,85.70
2022-12-17T19:35:03.732Z,94.10
2022-12-17T19:37:40.273Z,73.50
2022-12-17T19:40:20.380Z,74.20
2022-12-17T19:42:59.089Z,64.60
2022-12-17T19:45:35.915Z,67.20
2022-12-17T19:48:14.924Z,66.60
2022-12-17T19:51:00.262Z,74.50
2022-12-17T19:53:38.598Z,66.00
2022-12-17T19:56:22.219Z,56.40
2022-12-17T19:59:12.886Z,53.10
2022-12-17T20:01:50.624Z,62.90
2022-12-17T20:04:29.896Z,66.40
2022-12-17T20:07:06.429Z,55.70
2022-12-17T20:09:44.838Z,54.20
2022-12-17T20:12:21.310Z,56.40
2022-12-17T20:14:57.256Z,61.40
2022-12-17T20:17:34.107Z,49.40
2022-12-17T20:20:12.941Z,58.90
2022-12-17T20:22:49.230Z,67.20
2022-12-17T20:25:28.574Z,66.50
2022-12-17T20:28:04.864Z,63.90
2022-12-17T20:30:43.948Z,65.20
2022-12-17T20:33:19.772Z,65.90
2022-12-17T20:35:56.478Z,46.90
2022-12-17T20:38:33.002Z,64.60
2022-12-17T20:41:15.904Z,61.30
2022-12-17T20:43:52.642Z,45.90
2022-12-17T20:46:30.338Z,58.00
2022-12-17T20:49:07.113Z,57.90
2022-12-17T20:51:46.044Z,55.60
2022-12-17T20:54:22.302Z,36.80
2022-12-17T20:56:58.368Z,43.50
2022-12-17T20:59:34.421Z,52.60
2022-12-17T21:02:11.165Z,50.60
2022-12-17T21:04:50.182Z,45.90
2022-12-17T21:07:26.275Z,46.30
2022-12-17T21:10:02.203Z,50.10
2022-12-17T21:12:57.574Z,50.00
2022-12-17T21:15:33.804Z,48.50
2022-12-17T21:18:10.581Z,31.40
2022-12-17T21:20:59.769Z,50.30
2022-12-17T21:23:43.783Z,50.60
2022-12-17T21:26:27.065Z,48.30
2022-12-17T21:29:05.593Z,53.20
2022-12-17T21:31:44.926Z,56.30
2022-12-17T21:34:29.396Z,36.70
2022-12-17T21:37:05.864Z,44.20
2022-12-17T21:39:47.559Z,46.30
2022-12-17T21:42:43.366Z,49.00
2022-12-17T21:45:32.540Z,52.20
2022-12-17T21:48:16.867Z,40.00
2022-12-17T21:50:59.531Z,50.10
2022-12-17T21:53:37.902Z,46.50
2022-12-17T21:56:17.823Z,34.90
2022-12-17T21:58:59.612Z,44.90
2022-12-17T22:01:37.766Z,29.60
2022-12-17T22:04:14.168Z,54.60
2022-12-17T22:06:54.480Z,32.50
2022-12-17T22:09:53.402Z,52.30
2022-12-17T22:12:52.111Z,50.60
2022-12-17T22:15:31.122Z,51.50
2022-12-17T22:18:14.975Z,47.10
2022-12-17T22:21:01.904Z,42.10
2022-12-17T22:23:38.099Z,48.70
2022-12-17T22:26:16.646Z,38.80
2022-12-17T22:28:52.925Z,43.90
2022-12-17T22:31:46.892Z,46.80
2022-12-17T22:36:21.303Z,50.30
2022-12-17T22:39:42.005Z,42.10
2022-12-17T22:44:28.463Z,42.20
2022-12-17T22:44:40.882Z,46.70
2022-12-17T22:46:29.041Z,43.70
2022-12-17T22:49:05.357Z,43.10
2022-12-17T22:51:43.437Z,48.30
2022-12-17T22:54:19.848Z,47.20
2022-12-17T22:57:27.905Z,42.30
2022-12-17T22:59:52.634Z,34.00
2022-12-17T23:02:28.798Z,47.10
2022-12-17T23:05:05.062Z,40.50
2022-12-17T23:07:41.223Z,43.90
2022-12-17T23:10:17.888Z,47.30
2022-12-17T23:12:55.387Z,46.30
2022-12-17T23:15:37.554Z,40.40
2022-12-17T23:18:15.651Z,46.30
2022-12-17T23:20:51.923Z,49.60
2022-12-17T23:23:27.912Z,40.30
2022-12-17T23:26:11.351Z,41.90
2022-12-17T23:28:48.478Z,42.10
2022-12-17T23:31:28.568Z,46.90
2022-12-17T23:34:05.891Z,42.30
2022-12-17T23:36:45.402Z,40.10
2022-12-17T23:39:21.532Z,41.30
2022-12-17T23:42:00.704Z,39.10
2022-12-17T23:44:36.953Z,42.70
2022-12-17T23:47:18.666Z,40.80
2022-12-17T23:49:55.321Z,42.80
2022-12-17T23:52:35.231Z,45.60
2022-12-17T23:55:14.431Z,44.20
2022-12-17T23:57:50.458Z,45.10
